Time;durP1;ratioP1;P1;durP2;ratioP2;P2;SDS_P1;SDS_P2;PMS_P1;PMS_P2;Temp;Humidity;BMP_temperature;BMP_pressure;BME280_temperature;BME280_humidity;BME280_pressure;Samples;Min_cycle;Max_cycle;Signal;HPM_P1;HPM_P2
2021/06/25 00:02:14;;;;;;;7.63;6.90;;;17.90;99.90;;;;;;5053064;28;20582;-69
2021/06/25 00:04:40;;;;;;;8.60;7.60;;;17.90;99.90;;;;;;5072239;28;20169;-69
2021/06/25 00:07:05;;;;;;;10.67;7.83;;;17.90;99.90;;;;;;5070660;28;20200;-69
2021/06/25 00:09:31;;;;;;;8.53;7.03;;;17.80;99.90;;;;;;5051610;28;20196;-69
2021/06/25 00:11:57;;;;;;;8.63;7.57;;;17.90;99.90;;;;;;5070481;28;20208;-71
2021/06/25 00:14:23;;;;;;;10.23;7.53;;;17.90;99.90;;;;;;5065235;28;20196;-70
2021/06/25 00:16:53;;;;;;;8.80;7.90;;;17.90;99.90;;;;;;5051576;28;20675;-69
2021/06/25 00:19:20;;;;;;;9.50;8.50;;;17.80;99.90;;;;;;5070060;28;20196;-69
2021/06/25 00:21:46;;;;;;;9.63;8.47;;;17.80;99.90;;;;;;5070033;28;20201;-69
2021/06/25 00:24:11;;;;;;;11.90;9.47;;;17.70;99.90;;;;;;5070276;28;20172;-69
2021/06/25 00:26:37;;;;;;;9.13;8.20;;;17.60;99.90;;;;;;5069331;28;20201;-69
2021/06/25 00:29:03;;;;;;;12.57;8.67;;;17.60;99.90;;;;;;5070387;28;20169;-70
2021/06/25 00:31:28;;;;;;;9.60;8.20;;;17.60;99.90;;;;;;5068979;28;20727;-69
2021/06/25 00:33:54;;;;;;;9.73;8.00;;;17.60;99.90;;;;;;5071703;28;20177;-69
2021/06/25 00:36:19;;;;;;;10.67;7.83;;;17.60;99.90;;;;;;5072822;28;20299;-70
2021/06/25 00:38:45;;;;;;;11.20;8.43;;;17.50;99.90;;;;;;5073581;28;20532;-69
2021/06/25 00:41:10;;;;;;;10.30;8.53;;;17.50;99.90;;;;;;5056701;28;20291;-70
2021/06/25 00:43:39;;;;;;;10.60;8.10;;;17.50;99.90;;;;;;5055836;28;20527;-70
2021/06/25 00:46:06;;;;;;;10.90;8.03;;;17.50;99.90;;;;;;5072988;28;20270;-73
2021/06/25 00:48:31;;;;;;;15.23;7.63;;;17.50;99.90;;;;;;5073919;28;20181;-70
2021/06/25 00:50:57;;;;;;;8.40;7.60;;;17.50;99.90;;;;;;5073165;28;20200;-70
2021/06/25 00:53:23;;;;;;;11.77;7.43;;;17.50;99.90;;;;;;5054667;28;20176;-70
2021/06/25 00:55:48;;;;;;;10.80;8.00;;;17.50;99.90;;;;;;5073158;28;20185;-70
2021/06/25 00:58:15;;;;;;;9.80;7.93;;;17.50;99.90;;;;;;5073363;28;20184;-70
2021/06/25 01:00:42;;;;;;;10.40;8.23;;;17.60;99.90;;;;;;5073018;28;20165;-70
2021/06/25 01:03:08;;;;;;;12.03;7.93;;;17.60;99.90;;;;;;5072097;28;20668;-70
2021/06/25 01:05:34;;;;;;;9.33;8.33;;;17.60;99.90;;;;;;5072239;28;20208;-71
2021/06/25 01:08:00;;;;;;;9.33;7.97;;;17.50;99.90;;;;;;5071984;28;20231;-69
2021/06/25 01:10:26;;;;;;;11.07;8.57;;;17.40;99.90;;;;;;5072773;28;20196;-69
2021/06/25 01:12:52;;;;;;;11.23;8.30;;;17.40;99.90;;;;;;5072977;28;20196;-69
2021/06/25 01:15:17;;;;;;;12.93;9.80;;;17.40;99.90;;;;;;5071485;28;20553;-68
2021/06/25 01:17:44;;;;;;;10.93;7.70;;;17.30;99.90;;;;;;5072933;28;20176;-68
2021/06/25 01:20:17;;;;;;;12.43;9.20;;;17.30;99.90;;;;;;5066447;28;20521;-68
2021/06/25 01:22:42;;;;;;;10.77;8.80;;;17.20;99.90;;;;;;5053794;28;20615;-69
2021/06/25 01:25:21;;;;;;;10.63;9.13;;;17.20;99.90;;;;;;5070553;28;20236;-69
2021/06/25 01:27:49;;;;;;;11.17;8.37;;;17.20;99.90;;;;;;5075009;28;20169;-69
2021/06/25 01:30:21;;;;;;;9.80;8.80;;;17.20;99.90;;;;;;5074184;28;20173;-69
2021/06/25 01:32:47;;;;;;;11.27;8.90;;;17.20;99.90;;;;;;5073562;28;20166;-69
2021/06/25 01:35:13;;;;;;;12.50;8.27;;;17.20;99.90;;;;;;5071518;28;20201;-69
2021/06/25 01:37:41;;;;;;;11.20;8.50;;;17.20;99.90;;;;;;5054591;28;20256;-69
2021/06/25 01:40:09;;;;;;;10.10;8.90;;;17.20;99.90;;;;;;5071487;28;20173;-68
2021/06/25 01:42:37;;;;;;;12.50;9.30;;;17.20;99.90;;;;;;5072331;28;20553;-69
2021/06/25 01:45:07;;;;;;;9.87;8.67;;;17.20;99.90;;;;;;5069395;28;20731;-69
2021/06/25 01:47:35;;;;;;;12.07;8.73;;;17.20;99.90;;;;;;5052435;28;20173;-69
2021/06/25 01:50:06;;;;;;;9.93;7.80;;;17.20;99.90;;;;;;5062400;28;20188;-70
2021/06/25 01:52:32;;;;;;;10.73;8.67;;;17.30;99.90;;;;;;5071403;28;20234;-67
2021/06/25 01:54:58;;;;;;;9.27;8.37;;;17.40;99.90;;;;;;5072101;28;20281;-67
2021/06/25 01:57:23;;;;;;;10.93;8.17;;;17.40;99.90;;;;;;5072130;28;20169;-67
2021/06/25 01:59:49;;;;;;;8.83;7.93;;;17.30;99.90;;;;;;5072269;28;20173;-68
2021/06/25 02:02:14;;;;;;;10.00;7.90;;;17.40;99.90;;;;;;5069536;28;20186;-68
2021/06/25 02:04:40;;;;;;;10.00;7.80;;;17.40;99.90;;;;;;5072111;28;20587;-68
2021/06/25 02:07:05;;;;;;;8.50;7.60;;;17.40;99.90;;;;;;5071168;28;20184;-68
2021/06/25 02:09:31;;;;;;;10.73;8.23;;;17.40;99.90;;;;;;5072558;28;20257;-69
2021/06/25 02:11:57;;;;;;;11.10;7.53;;;17.40;99.90;;;;;;5073313;28;20201;-69
2021/06/25 02:14:23;;;;;;;11.87;7.63;;;17.40;99.90;;;;;;5072709;28;20620;-69
2021/06/25 02:16:48;;;;;;;9.20;7.80;;;17.40;99.90;;;;;;5068670;28;20172;-68
2021/06/25 02:19:14;;;;;;;10.10;8.10;;;17.40;99.90;;;;;;5071763;28;20180;-69
2021/06/25 02:21:39;;;;;;;9.33;8.30;;;17.30;99.90;;;;;;5071375;28;20530;-69
2021/06/25 02:24:05;;;;;;;10.77;7.90;;;17.30;99.90;;;;;;5070678;28;20427;-68
2021/06/25 02:26:31;;;;;;;11.20;7.67;;;17.40;99.90;;;;;;5071523;28;20195;-68
2021/06/25 02:28:56;;;;;;;9.50;7.80;;;17.40;99.90;;;;;;5051826;28;20264;-68
2021/06/25 02:31:22;;;;;;;10.70;7.80;;;17.40;99.90;;;;;;5071415;28;20213;-68
2021/06/25 02:33:48;;;;;;;12.27;8.53;;;17.40;99.90;;;;;;5068155;28;20574;-70
2021/06/25 02:36:13;;;;;;;12.77;8.70;;;17.40;99.90;;;;;;5071209;28;20200;-67
2021/06/25 02:38:39;;;;;;;14.00;9.40;;;17.30;99.90;;;;;;5071420;28;20213;-68
2021/06/25 02:41:04;;;;;;;10.17;9.07;;;17.30;99.90;;;;;;5072044;28;20219;-69
2021/06/25 02:43:30;;;;;;;10.20;8.83;;;17.30;99.90;;;;;;5071912;28;20227;-68
2021/06/25 02:45:56;;;;;;;9.80;8.63;;;17.20;99.90;;;;;;5068511;28;20218;-68
2021/06/25 02:48:22;;;;;;;11.40;9.30;;;17.20;99.90;;;;;;5067860;28;20630;-68
2021/06/25 02:50:47;;;;;;;14.07;9.07;;;17.10;99.90;;;;;;5070747;28;20742;-68
2021/06/25 02:53:13;;;;;;;11.90;8.50;;;17.10;99.90;;;;;;5070274;28;20177;-68
2021/06/25 02:55:50;;;;;;;14.47;9.13;;;17.10;99.90;;;;;;5070808;28;20188;-69
2021/06/25 02:58:17;;;;;;;9.93;8.97;;;17.10;99.90;;;;;;5070882;28;20165;-68
2021/06/25 03:00:42;;;;;;;12.67;8.70;;;17.20;99.90;;;;;;5070861;28;20179;-69
2021/06/25 03:03:08;;;;;;;11.27;8.70;;;17.20;99.90;;;;;;5071013;28;20181;-69
2021/06/25 03:05:33;;;;;;;10.17;9.07;;;17.20;99.90;;;;;;5051914;28;20207;-69
2021/06/25 03:07:59;;;;;;;9.20;8.30;;;17.10;99.90;;;;;;5071350;28;20177;-68
2021/06/25 03:10:24;;;;;;;12.33;9.07;;;17.10;99.90;;;;;;5071679;28;20653;-69
2021/06/25 03:12:50;;;;;;;9.77;8.27;;;17.00;99.90;;;;;;5071476;28;20172;-69
2021/06/25 03:15:15;;;;;;;9.00;8.00;;;17.10;99.90;;;;;;5071744;28;20199;-69
2021/06/25 03:17:41;;;;;;;12.17;8.47;;;17.00;99.90;;;;;;5071169;28;20214;-69
2021/06/25 03:20:07;;;;;;;11.17;8.27;;;16.90;99.90;;;;;;5069493;28;20193;-68
2021/06/25 03:22:34;;;;;;;12.20;8.07;;;16.80;99.90;;;;;;5070867;28;20326;-69
2021/06/25 03:24:59;;;;;;;11.57;8.73;;;16.80;99.90;;;;;;5071185;28;20192;-69
2021/06/25 03:27:25;;;;;;;9.20;8.30;;;16.80;99.90;;;;;;5068954;28;20663;-69
2021/06/25 03:29:50;;;;;;;10.30;8.37;;;16.70;99.90;;;;;;5053202;28;20276;-68
2021/06/25 03:32:16;;;;;;;11.60;9.27;;;16.70;99.90;;;;;;5070885;28;20266;-68
2021/06/25 03:34:42;;;;;;;12.60;10.23;;;16.70;99.90;;;;;;5069979;28;20180;-69
2021/06/25 03:37:08;;;;;;;18.90;10.63;;;16.60;99.90;;;;;;5050485;28;20206;-68
2021/06/25 03:39:34;;;;;;;13.20;9.47;;;16.60;99.90;;;;;;5070533;28;20202;-69
2021/06/25 03:41:59;;;;;;;11.50;9.83;;;16.50;99.90;;;;;;5070201;28;20177;-68
2021/06/25 03:44:25;;;;;;;11.23;9.57;;;16.60;99.90;;;;;;5070253;28;20732;-68
2021/06/25 03:46:50;;;;;;;11.50;9.63;;;16.50;99.90;;;;;;5070242;28;20189;-69
2021/06/25 03:49:16;;;;;;;11.20;8.73;;;16.60;99.90;;;;;;5070459;28;20261;-69
2021/06/25 03:51:41;;;;;;;12.67;8.67;;;16.60;99.90;;;;;;5068634;28;20208;-68
2021/06/25 03:54:07;;;;;;;13.07;9.07;;;16.70;99.90;;;;;;5069638;28;20177;-68
2021/06/25 03:56:32;;;;;;;9.67;8.63;;;16.70;99.90;;;;;;5070354;28;20283;-68
2021/06/25 03:58:58;;;;;;;11.80;8.83;;;16.70;99.90;;;;;;5068984;28;20184;-68
2021/06/25 04:01:23;;;;;;;9.93;7.80;;;16.70;99.90;;;;;;5069954;28;20173;-68
2021/06/25 04:03:49;;;;;;;12.13;8.87;;;16.60;99.90;;;;;;5070091;28;20668;-69
2021/06/25 04:06:15;;;;;;;13.70;8.90;;;17.00;99.90;;;;;;5070293;28;20196;-69
2021/06/25 04:08:41;;;;;;;9.67;7.50;;;18.00;99.90;;;;;;5070815;28;20259;-68
2021/06/25 04:11:06;;;;;;;12.57;8.67;;;18.60;99.90;;;;;;5073556;28;20197;-68
2021/06/25 04:13:34;;;;;;;12.13;7.40;;;19.20;99.90;;;;;;5073888;28;20169;-68
2021/06/25 04:15:59;;;;;;;8.97;7.43;;;19.50;99.90;;;;;;5073898;28;20215;-67
2021/06/25 04:18:25;;;;;;;10.60;7.23;;;19.60;99.90;;;;;;5075535;28;20180;-70
2021/06/25 04:20:52;;;;;;;15.50;9.97;;;18.40;99.90;;;;;;5077261;28;20169;-68
2021/06/25 04:23:19;;;;;;;9.13;8.13;;;18.00;99.90;;;;;;5074350;28;20176;-68
2021/06/25 04:25:45;;;;;;;12.17;8.57;;;17.70;99.90;;;;;;5073103;28;20250;-68
2021/06/25 04:28:11;;;;;;;11.37;9.20;;;17.40;99.90;;;;;;5073892;28;20180;-68
2021/06/25 04:30:40;;;;;;;14.73;9.27;;;17.40;99.90;;;;;;5073417;28;20193;-68
2021/06/25 04:33:07;;;;;;;12.40;9.77;;;17.40;99.90;;;;;;5073783;28;20633;-67
2021/06/25 04:35:33;;;;;;;15.80;10.17;;;17.30;99.90;;;;;;5073064;28;20250;-68
2021/06/25 04:38:01;;;;;;;12.40;9.50;;;17.30;99.90;;;;;;5055847;28;20199;-68
2021/06/25 04:40:29;;;;;;;13.77;10.40;;;17.50;99.90;;;;;;5073502;28;20540;-68
2021/06/25 04:42:55;;;;;;;11.10;10.03;;;17.90;99.90;;;;;;5073102;28;20166;-68
2021/06/25 04:45:20;;;;;;;14.70;9.73;;;18.00;99.90;;;;;;5073585;28;20231;-69
2021/06/25 04:47:46;;;;;;;13.20;9.87;;;18.30;99.90;;;;;;5073396;28;20173;-68
2021/06/25 04:50:12;;;;;;;14.00;10.83;;;18.60;99.90;;;;;;5073403;28;20173;-68
2021/06/25 04:52:41;;;;;;;15.13;10.53;;;18.50;99.90;;;;;;5073156;28;20165;-68
2021/06/25 04:55:07;;;;;;;13.37;10.27;;;18.40;99.90;;;;;;5072247;28;20209;-68
2021/06/25 04:57:33;;;;;;;17.73;11.07;;;18.40;99.90;;;;;;5073701;28;20168;-68
2021/06/25 04:59:58;;;;;;;13.87;10.47;;;18.20;99.90;;;;;;5073133;28;20173;-68
2021/06/25 05:02:24;;;;;;;12.70;11.17;;;18.10;99.90;;;;;;5072473;28;20617;-68
2021/06/25 05:04:50;;;;;;;14.53;10.57;;;18.20;99.90;;;;;;5055101;28;20618;-68
2021/06/25 05:07:15;;;;;;;11.83;10.13;;;18.20;99.90;;;;;;5071101;28;20185;-68
2021/06/25 05:09:41;;;;;;;11.73;10.50;;;18.10;99.90;;;;;;5052926;28;20170;-68
2021/06/25 05:12:07;;;;;;;12.07;9.80;;;18.20;99.90;;;;;;5034646;28;20201;-68
2021/06/25 05:14:33;;;;;;;12.63;9.57;;;18.30;99.90;;;;;;5053077;28;20174;-68
2021/06/25 05:16:59;;;;;;;11.00;9.17;;;18.50;99.90;;;;;;5052962;28;20177;-69
2021/06/25 05:19:24;;;;;;;11.30;8.70;;;18.40;99.90;;;;;;5072428;28;20169;-68
2021/06/25 05:21:50;;;;;;;10.63;8.60;;;18.50;99.90;;;;;;5072839;28;20237;-69
2021/06/25 05:24:15;;;;;;;12.30;8.30;;;18.50;99.90;;;;;;5069535;28;20193;-69
2021/06/25 05:26:41;;;;;;;11.60;9.00;;;18.50;99.90;;;;;;5074347;28;20727;-69
2021/06/25 05:29:06;;;;;;;10.70;9.40;;;18.50;99.90;;;;;;5073121;28;20169;-69
2021/06/25 05:31:32;;;;;;;10.17;8.07;;;18.50;99.90;;;;;;5073881;28;20287;-69
2021/06/25 05:33:59;;;;;;;11.67;8.30;;;18.60;99.90;;;;;;5074036;28;20193;-69
2021/06/25 05:36:25;;;;;;;13.00;9.10;;;18.50;99.90;;;;;;5073573;28;20189;-70
2021/06/25 05:38:50;;;;;;;10.63;7.93;;;18.60;99.90;;;;;;5054809;28;20719;-68
2021/06/25 05:41:17;;;;;;;11.73;8.73;;;18.50;99.90;;;;;;5076177;28;20189;-68
2021/06/25 05:43:42;;;;;;;10.47;7.80;;;18.50;99.90;;;;;;5075912;28;20185;-69
2021/06/25 05:46:09;;;;;;;10.50;8.10;;;18.50;99.90;;;;;;5105890;22;20306;-67
2021/06/25 05:48:35;;;;;;;11.30;8.63;;;18.40;99.90;;;;;;5113420;28;20258;-67
2021/06/25 05:51:00;;;;;;;11.27;7.97;;;18.50;99.90;;;;;;5112360;28;20686;-67
2021/06/25 05:53:26;;;;;;;13.83;8.93;;;18.40;99.90;;;;;;5097955;28;20172;-67
2021/06/25 05:55:51;;;;;;;11.77;8.70;;;18.30;99.90;;;;;;5110890;28;20200;-67
2021/06/25 05:58:17;;;;;;;10.40;9.30;;;18.30;99.90;;;;;;5113484;28;20172;-67
2021/06/25 06:00:43;;;;;;;13.67;8.77;;;18.20;99.90;;;;;;5104285;28;20185;-68
2021/06/25 06:03:08;;;;;;;12.80;9.23;;;18.20;99.90;;;;;;5092309;28;20179;-67
2021/06/25 06:05:35;;;;;;;10.70;9.13;;;18.10;99.90;;;;;;5092671;28;20726;-68
2021/06/25 06:08:02;;;;;;;15.60;9.40;;;18.10;99.90;;;;;;5092871;28;20173;-67
2021/06/25 06:10:28;;;;;;;9.70;8.47;;;18.00;99.90;;;;;;5090411;28;20207;-67
2021/06/25 06:12:53;;;;;;;13.03;8.53;;;17.90;99.90;;;;;;5092088;28;20177;-67
2021/06/25 06:15:19;;;;;;;13.57;8.73;;;17.90;99.90;;;;;;5072147;28;20684;-67
2021/06/25 06:17:48;;;;;;;10.83;9.27;;;17.90;99.90;;;;;;5091069;28;20178;-67
2021/06/25 06:20:23;;;;;;;10.87;9.13;;;17.90;99.90;;;;;;5082569;28;20260;-67
2021/06/25 06:31:20;;;;;;;12.80;9.43;;;18.10;99.90;;;;;;5111355;28;20251;-68
2021/06/25 06:36:33;;;;;;;12.97;9.90;;;18.10;99.90;;;;;;5093433;28;20657;-68
2021/06/25 06:39:00;;;;;;;10.23;9.23;;;18.20;99.90;;;;;;5074149;28;20190;-68
2021/06/25 06:41:27;;;;;;;10.87;9.70;;;18.50;99.90;;;;;;5079202;28;20252;-68
2021/06/25 06:43:53;;;;;;;11.63;9.53;;;18.60;99.90;;;;;;5092645;28;20636;-68
2021/06/25 06:46:19;;;;;;;15.40;10.70;;;18.60;99.90;;;;;;5088211;28;20295;-68
2021/06/25 06:48:46;;;;;;;10.47;9.37;;;18.50;99.90;;;;;;5079200;28;20255;-68
2021/06/25 06:51:13;;;;;;;12.50;9.40;;;18.60;99.90;;;;;;5090303;28;20207;-67
2021/06/25 06:53:42;;;;;;;13.00;9.90;;;18.60;99.90;;;;;;5090506;28;20194;-66
2021/06/25 06:56:12;;;;;;;11.00;9.60;;;19.10;99.90;;;;;;5091544;28;20561;-66
2021/06/25 06:58:38;;;;;;;11.53;9.50;;;19.30;99.90;;;;;;5085406;28;20229;-65
2021/06/25 07:01:04;;;;;;;9.40;8.40;;;19.90;99.90;;;;;;5079732;28;20226;-67
2021/06/25 07:03:30;;;;;;;12.83;8.80;;;20.10;99.90;;;;;;5093467;28;20361;-68
2021/06/25 07:05:55;;;;;;;10.00;8.57;;;20.50;99.90;;;;;;5087087;28;20210;-67
2021/06/25 07:08:21;;;;;;;9.10;8.13;;;20.60;99.90;;;;;;5070527;28;20261;-67
2021/06/25 07:10:47;;;;;;;9.30;7.60;;;21.00;99.90;;;;;;5069814;28;20196;-67
2021/06/25 07:13:13;;;;;;;9.67;7.70;;;21.30;99.90;;;;;;5053472;28;20586;-67
2021/06/25 07:15:39;;;;;;;9.50;7.80;;;20.90;99.90;;;;;;5071659;28;20192;-67
2021/06/25 07:18:05;;;;;;;9.87;8.00;;;20.80;99.90;;;;;;5071628;28;20588;-67
2021/06/25 07:20:31;;;;;;;10.73;8.50;;;20.60;99.90;;;;;;5053445;28;20661;-68
2021/06/25 07:22:57;;;;;;;9.83;8.83;;;20.70;99.90;;;;;;5071465;28;20235;-67
2021/06/25 07:25:22;;;;;;;8.47;7.50;;;20.50;99.90;;;;;;5071385;28;20564;-67
2021/06/25 07:27:48;;;;;;;9.67;8.00;;;20.70;99.90;;;;;;5071589;28;20174;-67
2021/06/25 07:30:14;;;;;;;8.83;7.87;;;20.60;99.90;;;;;;5071170;28;20261;-67
2021/06/25 07:32:40;;;;;;;10.30;7.47;;;20.40;99.90;;;;;;5071265;28;20210;-67
2021/06/25 07:35:06;;;;;;;8.93;8.03;;;20.30;99.90;;;;;;5071851;28;20204;-68
2021/06/25 07:37:31;;;;;;;9.57;8.10;;;20.30;99.90;;;;;;5071181;28;20180;-67
2021/06/25 07:39:57;;;;;;;10.90;8.37;;;20.20;99.90;;;;;;5071302;28;20166;-67
2021/06/25 07:42:24;;;;;;;8.60;7.80;;;20.40;99.90;;;;;;5070635;28;20232;-68
2021/06/25 07:44:50;;;;;;;10.57;7.53;;;20.50;99.90;;;;;;5070726;28;20181;-67
2021/06/25 07:47:17;;;;;;;16.43;7.50;;;21.00;99.90;;;;;;5071505;28;20182;-67
2021/06/25 07:49:43;;;;;;;8.33;7.53;;;21.30;99.90;;;;;;5070864;28;20168;-67
2021/06/25 07:52:08;;;;;;;7.57;6.87;;;21.90;99.90;;;;;;5070595;28;20276;-68
2021/06/25 07:54:34;;;;;;;8.13;7.33;;;22.00;99.90;;;;;;5071126;28;20609;-67
2021/06/25 07:56:59;;;;;;;7.50;6.60;;;22.10;99.90;;;;;;5074557;28;20195;-67
2021/06/25 07:59:25;;;;;;;7.67;6.97;;;21.60;99.90;;;;;;5085815;28;20184;-67
2021/06/25 08:01:51;;;;;;;9.15;7.00;;;21.80;99.90;;;;;;5089199;28;20177;-68
2021/06/25 08:04:16;;;;;;;8.15;6.32;;;21.70;99.90;;;;;;5079019;28;20703;-68
2021/06/25 08:06:42;;;;;;;6.22;5.72;;;22.10;99.90;;;;;;5081335;28;20212;-68
2021/06/25 08:09:07;;;;;;;7.50;6.30;;;22.40;99.90;;;;;;5084439;28;20183;-68
2021/06/25 08:11:34;;;;;;;5.73;5.10;;;22.30;99.90;;;;;;5071051;28;20289;-68
2021/06/25 08:14:00;;;;;;;6.15;4.90;;;22.00;99.90;;;;;;5073732;28;20185;-69
2021/06/25 08:16:26;;;;;;;15.10;5.70;;;21.70;99.90;;;;;;5071043;28;20618;-68
2021/06/25 08:18:57;;;;;;;6.57;5.95;;;22.40;99.90;;;;;;5052372;28;20176;-68
2021/06/25 08:21:24;;;;;;;7.95;5.90;;;22.20;99.90;;;;;;5077611;28;20568;-68
2021/06/25 08:23:49;;;;;;;6.10;5.50;;;22.40;99.90;;;;;;5091439;28;20645;-68
2021/06/25 08:26:15;;;;;;;7.97;5.90;;;22.70;99.90;;;;;;5090415;28;20234;-68
2021/06/25 08:28:40;;;;;;;7.78;6.30;;;22.70;99.90;;;;;;5090617;28;20181;-68
2021/06/25 08:31:06;;;;;;;8.85;6.55;;;22.80;99.90;;;;;;5090203;28;20214;-68
2021/06/25 08:33:31;;;;;;;7.28;6.57;;;21.70;99.90;;;;;;5090872;28;20172;-67
2021/06/25 08:35:57;;;;;;;7.97;6.40;;;21.80;99.90;;;;;;5086163;28;20622;-69
2021/06/25 08:38:22;;;;;;;17.50;15.80;;;21.10;99.90;;;;;;5090565;28;20171;-69
2021/06/25 08:40:48;;;;;;;8.87;6.80;;;20.50;99.90;;;;;;5090456;28;20197;-69
2021/06/25 08:43:15;;;;;;;8.10;7.07;;;20.30;99.90;;;;;;5070476;28;20180;-67
2021/06/25 08:45:40;;;;;;;11.60;6.40;;;20.00;99.90;;;;;;5070222;28;20214;-59
2021/06/25 08:48:09;;;;;;;10.90;6.73;;;19.70;99.90;;;;;;5070498;28;20334;-60
2021/06/25 08:50:39;;;;;;;13.20;7.50;;;19.50;99.90;;;;;;5081881;28;20208;-60
2021/06/25 08:53:05;;;;;;;8.53;7.57;;;19.30;99.90;;;;;;5070293;28;20181;-65
2021/06/25 08:55:31;;;;;;;14.23;8.03;;;19.10;99.90;;;;;;5080197;28;20223;-59
2021/06/25 08:57:56;;;;;;;9.07;6.40;;;19.00;99.90;;;;;;5067883;28;20534;-60
2021/06/25 09:00:22;;;;;;;10.13;7.27;;;18.80;99.90;;;;;;5073163;28;20177;-60
2021/06/25 09:02:48;;;;;;;8.27;7.23;;;18.80;99.90;;;;;;5073409;28;20180;-61
2021/06/25 09:05:24;;;;;;;10.13;8.00;;;18.80;99.90;;;;;;5073280;28;20189;-60
2021/06/25 09:07:49;;;;;;;9.07;7.53;;;18.90;99.90;;;;;;5082345;28;20701;-59
2021/06/25 09:10:27;;;;;;;8.23;7.47;;;18.80;99.90;;;;;;5093099;28;20280;-60
2021/06/25 09:13:14;;;;;;;8.57;6.97;;;18.90;99.90;;;;;;5093176;28;20711;-60
2021/06/25 09:15:41;;;;;;;14.37;8.07;;;19.10;99.90;;;;;;5093022;28;20188;-60
2021/06/25 09:18:08;;;;;;;10.17;7.67;;;19.20;99.90;;;;;;5075128;28;20173;-60
2021/06/25 09:20:35;;;;;;;8.50;7.43;;;19.40;99.90;;;;;;5093536;28;20177;-59
2021/06/25 09:23:05;;;;;;;8.50;6.80;;;19.70;99.90;;;;;;5093604;28;20169;-59
2021/06/25 09:25:47;;;;;;;9.50;7.27;;;20.00;99.90;;;;;;5076234;28;20199;-60
2021/06/25 09:28:21;;;;;;;9.00;6.40;;;20.50;99.90;;;;;;5077241;28;20185;-60
2021/06/25 09:30:47;;;;;;;9.60;7.13;;;21.00;99.90;;;;;;5091892;28;20681;-60
2021/06/25 09:33:13;;;;;;;7.53;6.30;;;20.90;99.90;;;;;;5092627;28;20178;-60
2021/06/25 09:35:38;;;;;;;7.00;6.30;;;21.50;99.90;;;;;;5092416;28;20238;-59
2021/06/25 09:38:04;;;;;;;8.20;5.10;;;21.90;99.90;;;;;;5093157;28;20172;-59
2021/06/25 09:40:36;;;;;;;7.20;4.90;;;22.30;99.90;;;;;;5093171;28;20511;-59
2021/06/25 09:43:13;;;;;;;6.95;4.85;;;23.10;99.90;;;;;;5065830;28;20166;-61
2021/06/25 09:45:48;;;;;;;6.13;4.57;;;23.60;99.90;;;;;;5077239;28;20392;-59
2021/06/25 09:48:14;;;;;;;6.78;4.63;;;23.50;99.90;;;;;;5089773;28;20225;-67
2021/06/25 09:50:40;;;;;;;5.35;4.82;;;23.50;99.90;;;;;;5088020;28;20820;-67
2021/06/25 09:53:07;;;;;;;9.55;5.80;;;23.50;99.90;;;;;;5082456;28;20574;-66
2021/06/25 09:55:57;;;;;;;7.38;5.25;;;22.60;99.90;;;;;;5089882;28;20194;-66
2021/06/25 09:58:45;;;;;;;9.48;6.88;;;22.50;99.90;;;;;;5072451;28;20233;-67
2021/06/25 10:01:24;;;;;;;6.55;5.00;;;22.10;99.90;;;;;;5083673;28;20691;-69
2021/06/25 10:03:53;;;;;;;5.90;5.23;;;21.40;99.90;;;;;;5075803;28;20173;-69
2021/06/25 10:06:20;;;;;;;6.67;5.50;;;21.40;99.90;;;;;;5072897;28;20198;-68
2021/06/25 10:08:46;;;;;;;8.57;5.90;;;21.50;99.90;;;;;;5075682;28;20184;-68
2021/06/25 10:11:15;;;;;;;6.90;5.67;;;21.80;99.90;;;;;;5074917;28;20233;-68
2021/06/25 10:13:41;;;;;;;7.50;5.88;;;21.90;99.90;;;;;;5072520;28;20174;-68
2021/06/25 10:16:08;;;;;;;5.75;5.00;;;21.90;99.90;;;;;;5072513;28;20231;-68
2021/06/25 10:18:39;;;;;;;5.55;4.95;;;22.40;99.90;;;;;;5076734;28;20202;-68
2021/06/25 10:21:08;;;;;;;8.45;4.70;;;22.70;99.90;;;;;;5079892;28;20569;-68
2021/06/25 10:23:36;;;;;;;8.40;5.07;;;23.20;99.90;;;;;;5077155;28;20261;-68
2021/06/25 10:26:07;;;;;;;7.68;4.68;;;23.70;99.90;;;;;;5088495;28;20568;-69
2021/06/25 10:28:35;;;;;;;8.18;5.43;;;23.80;99.90;;;;;;5077039;28;20544;-68
2021/06/25 10:31:01;;;;;;;10.65;5.00;;;24.00;99.90;;;;;;5083123;28;20297;-72
2021/06/25 10:33:27;;;;;;;5.53;4.60;;;24.00;99.90;;;;;;5080797;28;20251;-69
2021/06/25 10:35:53;;;;;;;6.72;4.63;;;23.90;99.90;;;;;;5086079;28;20693;-72
2021/06/25 10:38:23;;;;;;;9.65;4.65;;;24.20;99.90;;;;;;5074102;28;20192;-69
2021/06/25 10:40:55;;;;;;;5.88;4.57;;;24.40;99.90;;;;;;5081864;28;20175;-70
2021/06/25 10:43:46;;;;;;;5.43;4.65;;;24.30;99.90;;;;;;5059876;28;20254;-69
2021/06/25 10:46:34;;;;;;;6.50;4.80;;;23.80;99.90;;;;;;5088441;28;20222;-69
2021/06/25 10:49:13;;;;;;;8.55;5.05;;;23.70;99.90;;;;;;5072269;28;20639;-69
2021/06/25 10:51:42;;;;;;;8.60;4.65;;;23.80;99.90;;;;;;5076143;28;20333;-68
2021/06/25 10:54:17;;;;;;;6.78;4.95;;;24.10;99.90;;;;;;5072273;28;20249;-67
2021/06/25 10:56:48;;;;;;;6.20;4.78;;;24.40;99.90;;;;;;5087415;28;20201;-67
2021/06/25 10:59:19;;;;;;;8.15;5.47;;;24.10;99.90;;;;;;5081734;28;20177;-68
2021/06/25 11:01:51;;;;;;;10.80;5.55;;;23.10;99.90;;;;;;5073487;28;20640;-68
2021/06/25 11:04:42;;;;;;;7.53;5.90;;;23.20;99.90;;;;;;5092605;28;20697;-67
2021/06/25 11:07:10;;;;;;;9.05;6.18;;;22.80;99.90;;;;;;5092175;28;20178;-67
2021/06/25 11:09:56;;;;;;;6.55;5.93;;;22.60;99.90;;;;;;5091934;28;20532;-68
2021/06/25 11:12:24;;;;;;;9.13;6.53;;;22.70;99.90;;;;;;5091770;28;20661;-68
2021/06/25 11:15:16;;;;;;;8.00;6.35;;;22.70;99.90;;;;;;5073325;28;20675;-67
2021/06/25 11:17:50;;;;;;;10.07;8.88;;;22.30;99.90;;;;;;5077193;28;20239;-68
2021/06/25 11:20:24;;;;;;;7.55;6.30;;;22.00;99.90;;;;;;5091894;28;20232;-67
2021/06/25 11:23:09;;;;;;;7.00;6.13;;;21.70;99.90;;;;;;5057602;28;20184;-68
2021/06/25 11:26:04;;;;;;;6.80;6.10;;;21.50;99.90;;;;;;5092827;28;20196;-68
2021/06/25 11:28:33;;;;;;;7.70;6.10;;;21.10;99.90;;;;;;5090019;28;20274;-69
2021/06/25 11:31:17;;;;;;;6.67;5.93;;;21.10;99.90;;;;;;5091532;28;20717;-70
2021/06/25 11:34:01;;;;;;;9.47;6.83;;;21.50;99.90;;;;;;5093357;28;20640;-69
2021/06/25 11:36:52;;;;;;;8.13;5.70;;;21.90;99.90;;;;;;5073859;28;20189;-66
2021/06/25 11:39:21;;;;;;;7.17;5.40;;;22.10;99.90;;;;;;5083375;28;20648;-69
2021/06/25 11:42:02;;;;;;;7.22;5.38;;;22.30;99.90;;;;;;5106258;28;20182;-68
2021/06/25 11:44:37;;;;;;;6.20;5.20;;;22.70;99.90;;;;;;5099305;28;20177;-69
2021/06/25 11:47:20;;;;;;;7.03;5.25;;;23.00;99.90;;;;;;5137596;22;20229;-82
2021/06/25 11:52:25;;;;;;;8.07;6.00;;;23.80;99.90;;;;;;5119658;28;20206;-82
2021/06/25 11:54:53;;;;;;;8.13;6.05;;;24.10;99.90;;;;;;5098875;28;20545;-81
2021/06/25 11:57:24;;;;;;;6.25;5.70;;;24.10;99.90;;;;;;5116763;28;20323;-80
2021/06/25 11:59:58;;;;;;;6.00;5.10;;;23.90;99.90;;;;;;5102960;28;20189;-80
2021/06/25 12:02:24;;;;;;;8.68;4.82;;;24.20;99.90;;;;;;5101414;28;20181;-77
2021/06/25 12:04:50;;;;;;;6.15;5.53;;;24.10;99.90;;;;;;5116248;28;20183;-77
2021/06/25 12:07:18;;;;;;;5.78;5.10;;;23.80;99.90;;;;;;5114276;28;21425;-80
2021/06/25 12:09:50;;;;;;;6.72;4.93;;;23.50;99.90;;;;;;5101062;28;20166;-79
2021/06/25 12:12:19;;;;;;;7.20;5.00;;;23.30;99.90;;;;;;5107204;28;20253;-81
2021/06/25 12:14:47;;;;;;;6.10;4.70;;;23.20;99.90;;;;;;5124058;28;20171;-82
2021/06/25 12:17:12;;;;;;;6.88;4.80;;;23.10;99.90;;;;;;5123235;28;20209;-78
2021/06/25 12:19:39;;;;;;;5.25;4.55;;;23.30;99.90;;;;;;5114735;28;20188;-79
2021/06/25 12:22:09;;;;;;;5.47;4.97;;;23.10;99.90;;;;;;5100745;28;20679;-78
2021/06/25 12:24:49;;;;;;;5.75;5.00;;;23.40;99.90;;;;;;5079372;28;20166;-79
2021/06/25 12:27:16;;;;;;;4.97;4.35;;;24.00;99.90;;;;;;5083195;28;20198;-80
2021/06/25 12:29:42;;;;;;;4.82;4.43;;;24.00;99.90;;;;;;5061574;28;20587;-80
2021/06/25 12:32:19;;;;;;;4.85;4.45;;;23.90;99.90;;;;;;5082545;28;20234;-79
2021/06/25 12:34:46;;;;;;;5.55;4.47;;;23.80;99.90;;;;;;5097443;28;20187;-80
2021/06/25 12:37:12;;;;;;;4.90;4.50;;;23.30;99.90;;;;;;5088543;28;20206;-79
2021/06/25 12:39:43;;;;;;;5.57;4.35;;;23.60;99.90;;;;;;5098657;28;20173;-79
2021/06/25 12:42:09;;;;;;;6.35;4.53;;;23.50;99.90;;;;;;5081815;28;20216;-80
2021/06/25 12:44:35;;;;;;;5.00;4.57;;;23.80;99.90;;;;;;5079654;28;20695;-81
2021/06/25 12:47:07;;;;;;;6.28;4.35;;;24.10;99.90;;;;;;5075937;28;20207;-80
2021/06/25 12:49:36;;;;;;;7.45;5.07;;;23.50;99.90;;;;;;5075831;28;20164;-79
2021/06/25 12:52:23;;;;;;;6.55;4.47;;;23.20;99.90;;;;;;5080721;28;20691;-79
2021/06/25 12:54:50;;;;;;;5.85;4.82;;;23.20;99.90;;;;;;5095231;28;20172;-79
2021/06/25 12:57:17;;;;;;;4.53;4.13;;;23.30;99.90;;;;;;5078116;28;20207;-79
2021/06/25 12:59:47;;;;;;;5.25;3.95;;;23.30;99.90;;;;;;5077383;28;20173;-79